createdAt,value
2023-01-19T00:02:39.330Z,100.00
2023-01-19T00:05:44.540Z,100.00
2023-01-19T00:08:50.236Z,100.00
2023-01-19T00:11:54.767Z,100.00
2023-01-19T00:14:59.327Z,100.00
2023-01-19T00:18:04.743Z,100.00
2023-01-19T00:21:09.336Z,100.00
2023-01-19T00:24:14.117Z,100.00
2023-01-19T00:27:18.660Z,100.00
2023-01-19T00:30:23.214Z,100.00
2023-01-19T00:33:28.028Z,100.00
2023-01-19T00:36:32.723Z,100.00
2023-01-19T00:39:37.332Z,100.00
2023-01-19T00:42:44.217Z,100.00
2023-01-19T00:45:48.798Z,100.00
2023-01-19T00:48:53.280Z,100.00
2023-01-19T00:51:57.821Z,100.00
2023-01-19T00:55:02.384Z,100.00
2023-01-19T00:58:07.228Z,100.00
2023-01-19T01:01:12.072Z,100.00
2023-01-19T01:04:16.701Z,100.00
2023-01-19T01:07:22.293Z,100.00
2023-01-19T01:10:28.857Z,100.00
2023-01-19T01:13:33.795Z,100.00
2023-01-19T01:16:38.844Z,100.00
2023-01-19T01:19:43.401Z,100.00
2023-01-19T01:22:50.933Z,100.00
2023-01-19T01:25:55.747Z,100.00
2023-01-19T01:29:00.496Z,100.00
2023-01-19T01:32:05.097Z,100.00
2023-01-19T01:35:11.060Z,100.00
2023-01-19T01:38:16.757Z,100.00
2023-01-19T01:41:21.976Z,100.00
2023-01-19T01:44:31.713Z,100.00
2023-01-19T01:47:58.336Z,100.00
2023-01-19T01:51:26.021Z,100.00
2023-01-19T01:54:33.480Z,100.00
2023-01-19T01:57:42.017Z,100.00
2023-01-19T02:01:05.296Z,100.00
2023-01-19T02:04:09.909Z,100.00
2023-01-19T02:07:39.774Z,100.00
2023-01-19T02:11:02.824Z,100.00
2023-01-19T02:14:07.343Z,100.00
2023-01-19T02:17:11.945Z,100.00
2023-01-19T02:20:17.702Z,100.00
2023-01-19T02:23:49.023Z,100.00
2023-01-19T02:26:53.784Z,100.00
2023-01-19T02:30:00.261Z,100.00
2023-01-19T02:33:04.825Z,100.00
2023-01-19T02:36:15.163Z,100.00
2023-01-19T02:39:25.650Z,100.00
2023-01-19T02:42:43.552Z,100.00
2023-01-19T02:45:48.232Z,100.00
2023-01-19T02:48:52.830Z,100.00
2023-01-19T02:51:58.486Z,100.00
2023-01-19T02:55:18.437Z,100.00
2023-01-19T02:58:37.376Z,100.00
2023-01-19T03:01:50.427Z,100.00
2023-01-19T03:05:04.936Z,100.00
2023-01-19T03:08:37.917Z,100.00
2023-01-19T03:11:50.130Z,100.00
2023-01-19T03:15:00.706Z,100.00
2023-01-19T03:18:10.253Z,100.00
2023-01-19T03:21:15.822Z,100.00
2023-01-19T03:24:22.771Z,100.00
2023-01-19T03:27:32.155Z,100.00
2023-01-19T03:30:40.502Z,100.00
2023-01-19T03:33:56.048Z,100.00
2023-01-19T03:37:03.731Z,100.00
2023-01-19T03:40:09.230Z,100.00
2023-01-19T03:43:16.692Z,100.00
2023-01-19T03:46:22.865Z,100.00
2023-01-19T03:49:31.177Z,100.00
2023-01-19T03:52:35.640Z,100.00
2023-01-19T03:55:43.097Z,100.00
2023-01-19T03:58:47.814Z,100.00
2023-01-19T04:01:52.385Z,100.00
2023-01-19T04:04:58.745Z,100.00
2023-01-19T04:08:03.364Z,100.00
2023-01-19T04:11:08.315Z,100.00
2023-01-19T04:14:13.181Z,100.00
2023-01-19T04:17:17.716Z,100.00
2023-01-19T04:20:22.294Z,100.00
2023-01-19T04:23:27.249Z,100.00
2023-01-19T04:26:31.845Z,100.00
2023-01-19T04:29:36.343Z,100.00
2023-01-19T04:32:40.971Z,100.00
2023-01-19T04:35:46.736Z,100.00
2023-01-19T04:38:51.372Z,100.00
2023-01-19T04:41:57.473Z,100.00
2023-01-19T04:45:02.026Z,100.00
2023-01-19T04:48:06.603Z,100.00
2023-01-19T04:51:11.142Z,100.00
2023-01-19T04:54:15.640Z,100.00
2023-01-19T04:57:20.202Z,100.00
2023-01-19T05:00:24.754Z,100.00
2023-01-19T05:03:29.394Z,100.00
2023-01-19T05:06:35.809Z,100.00
2023-01-19T05:09:40.449Z,100.00
2023-01-19T05:12:44.927Z,100.00
2023-01-19T05:15:50.281Z,100.00
2023-01-19T05:18:54.993Z,100.00
2023-01-19T05:21:59.489Z,100.00
2023-01-19T05:25:04.270Z,100.00
2023-01-19T05:31:29.040Z,100.00
2023-01-19T05:34:33.707Z,100.00
2023-01-19T05:37:38.247Z,100.00
2023-01-19T05:40:43.219Z,100.00
2023-01-19T05:43:47.769Z,100.00
2023-01-19T05:46:52.443Z,100.00
2023-01-19T05:49:57.351Z,100.00
2023-01-19T05:53:03.361Z,100.00
2023-01-19T05:56:09.533Z,100.00
2023-01-19T05:59:15.287Z,100.00
2023-01-19T06:02:19.828Z,100.00
2023-01-19T06:05:25.547Z,100.00
2023-01-19T06:08:30.219Z,100.00
2023-01-19T06:11:34.744Z,100.00
2023-01-19T06:14:40.618Z,100.00
2023-01-19T06:17:45.235Z,100.00
2023-01-19T06:20:49.815Z,100.00
2023-01-19T06:23:54.394Z,100.00
2023-01-19T06:27:00.383Z,100.00
2023-01-19T06:30:06.394Z,100.00
2023-01-19T06:33:10.972Z,100.00
2023-01-19T06:36:16.948Z,100.00
2023-01-19T06:39:21.487Z,100.00
2023-01-19T06:42:25.950Z,100.00
2023-01-19T06:45:30.471Z,100.00
2023-01-19T06:48:35.022Z,100.00
2023-01-19T06:51:40.698Z,100.00
2023-01-19T06:54:46.086Z,100.00
2023-01-19T06:57:57.707Z,100.00
2023-01-19T07:01:03.862Z,100.00
2023-01-19T07:04:08.436Z,100.00
2023-01-19T07:07:12.950Z,100.00
2023-01-19T07:10:17.564Z,100.00
2023-01-19T07:13:22.234Z,100.00
2023-01-19T07:16:28.815Z,100.00
2023-01-19T07:19:34.868Z,100.00
2023-01-19T07:22:39.990Z,100.00
2023-01-19T07:25:46.045Z,100.00
2023-01-19T07:28:51.760Z,100.00
2023-01-19T07:31:56.335Z,100.00
2023-01-19T07:35:00.927Z,100.00
2023-01-19T07:38:05.541Z,100.00
2023-01-19T07:41:11.796Z,100.00
2023-01-19T07:44:16.547Z,100.00
2023-01-19T07:47:21.095Z,100.00
2023-01-19T07:50:27.668Z,100.00
2023-01-19T07:53:32.691Z,100.00
2023-01-19T07:56:37.253Z,100.00
2023-01-19T07:59:41.768Z,100.00
2023-01-19T08:02:47.153Z,100.00
2023-01-19T08:05:53.041Z,100.00
2023-01-19T08:08:57.576Z,100.00
2023-01-19T08:12:02.086Z,100.00
2023-01-19T08:15:07.169Z,100.00
2023-01-19T08:18:11.781Z,100.00
2023-01-19T08:21:16.419Z,100.00
2023-01-19T08:24:23.830Z,100.00
2023-01-19T08:27:28.831Z,100.00
2023-01-19T08:30:34.062Z,100.00
2023-01-19T08:33:38.662Z,100.00
2023-01-19T08:36:43.233Z,100.00
2023-01-19T08:39:47.758Z,100.00
2023-01-19T08:42:52.347Z,100.00
2023-01-19T08:45:56.898Z,100.00
2023-01-19T08:49:01.438Z,100.00
2023-01-19T08:52:06.001Z,100.00
2023-01-19T08:55:11.831Z,100.00
2023-01-19T08:58:16.589Z,100.00
2023-01-19T09:01:22.281Z,100.00
2023-01-19T09:04:26.970Z,100.00
2023-01-19T09:07:33.887Z,100.00
2023-01-19T09:10:45.878Z,100.00
2023-01-19T09:13:50.346Z,100.00
2023-01-19T09:16:59.020Z,100.00
2023-01-19T09:20:05.823Z,100.00
2023-01-19T09:23:11.596Z,100.00
2023-01-19T09:26:16.573Z,100.00
2023-01-19T09:29:21.697Z,100.00
2023-01-19T09:32:26.376Z,100.00
2023-01-19T09:35:31.438Z,100.00
2023-01-19T09:38:36.631Z,100.00
2023-01-19T09:41:47.078Z,100.00
2023-01-19T09:44:53.188Z,100.00
2023-01-19T09:47:59.324Z,100.00
2023-01-19T09:51:10.289Z,100.00
2023-01-19T09:54:29.840Z,100.00
2023-01-19T09:57:35.719Z,100.00
2023-01-19T10:00:42.831Z,100.00
2023-01-19T10:03:53.446Z,100.00
2023-01-19T10:07:19.341Z,100.00
2023-01-19T10:10:28.890Z,100.00
2023-01-19T10:13:46.999Z,100.00
2023-01-19T10:17:29.890Z,100.00
2023-01-19T10:20:51.132Z,100.00
2023-01-19T10:23:58.746Z,100.00
2023-01-19T10:27:10.292Z,100.00
2023-01-19T10:30:23.247Z,100.00
2023-01-19T10:33:28.081Z,100.00
2023-01-19T10:36:38.150Z,100.00
2023-01-19T10:39:47.296Z,100.00
2023-01-19T10:42:51.789Z,100.00
2023-01-19T10:45:58.123Z,100.00
2023-01-19T10:49:03.214Z,100.00
2023-01-19T10:52:19.112Z,100.00
2023-01-19T10:55:29.610Z,100.00
2023-01-19T10:58:35.082Z,100.00
2023-01-19T11:01:39.768Z,100.00
2023-01-19T11:04:50.118Z,100.00
2023-01-19T11:07:55.284Z,100.00
2023-01-19T11:11:08.023Z,100.00
2023-01-19T11:14:22.559Z,100.00
2023-01-19T11:17:28.503Z,100.00
2023-01-19T11:20:44.036Z,100.00
2023-01-19T11:23:52.094Z,100.00
2023-01-19T11:27:02.858Z,100.00
2023-01-19T11:30:18.143Z,100.00
2023-01-19T11:33:37.790Z,100.00
2023-01-19T11:37:01.890Z,100.00
2023-01-19T11:40:10.541Z,100.00
2023-01-19T11:43:15.257Z,100.00
2023-01-19T11:46:21.422Z,100.00
2023-01-19T11:49:40.655Z,100.00
2023-01-19T11:52:47.698Z,100.00
2023-01-19T11:56:10.915Z,100.00
2023-01-19T11:59:15.293Z,100.00
2023-01-19T12:02:30.898Z,100.00
2023-01-19T12:05:38.801Z,100.00
2023-01-19T12:08:55.233Z,100.00
2023-01-19T12:12:05.914Z,100.00
2023-01-19T12:15:18.276Z,100.00
2023-01-19T12:18:27.857Z,100.00
2023-01-19T12:21:32.373Z,100.00
2023-01-19T12:24:46.701Z,100.00
2023-01-19T12:27:52.012Z,100.00
2023-01-19T12:30:58.263Z,98.96
2023-01-19T12:34:31.069Z,99.68
2023-01-19T12:37:40.592Z,99.59
2023-01-19T12:40:45.403Z,97.34
2023-01-19T12:44:16.416Z,94.27
2023-01-19T12:47:22.806Z,99.09
2023-01-19T12:50:31.823Z,95.72
2023-01-19T12:53:36.561Z,99.65
2023-01-19T12:56:41.083Z,100.00
2023-01-19T12:59:45.769Z,100.00
2023-01-19T13:02:58.722Z,100.00
2023-01-19T13:06:03.502Z,97.51
2023-01-19T13:09:27.621Z,100.00
2023-01-19T13:12:33.674Z,95.13
2023-01-19T13:15:39.248Z,90.14
2023-01-19T13:18:50.286Z,92.61
2023-01-19T13:21:54.971Z,90.09
2023-01-19T13:25:07.570Z,91.55
2023-01-19T13:28:16.645Z,84.03
2023-01-19T13:31:22.810Z,87.85
2023-01-19T13:34:28.533Z,95.15
2023-01-19T13:37:39.764Z,97.90
2023-01-19T13:40:45.867Z,92.60
2023-01-19T13:43:58.502Z,100.00
2023-01-19T13:47:04.145Z,94.46
2023-01-19T13:50:09.672Z,94.73
2023-01-19T13:53:23.471Z,100.00
2023-01-19T13:56:29.746Z,100.00
2023-01-19T13:59:34.423Z,100.00
2023-01-19T14:02:59.058Z,95.45
2023-01-19T14:06:03.857Z,96.02
2023-01-19T14:09:18.434Z,99.17
2023-01-19T14:12:23.122Z,98.42
2023-01-19T14:15:29.313Z,100.00
2023-01-19T14:18:36.016Z,100.00
2023-01-19T14:21:41.207Z,100.00
2023-01-19T14:24:45.779Z,100.00
2023-01-19T14:27:50.312Z,100.00
2023-01-19T14:31:00.814Z,100.00
2023-01-19T14:34:05.518Z,100.00
2023-01-19T14:37:34.099Z,99.76
2023-01-19T14:40:38.602Z,99.31
2023-01-19T14:43:44.899Z,100.00
2023-01-19T14:46:49.928Z,98.16
2023-01-19T14:49:56.297Z,100.00
2023-01-19T14:53:04.410Z,100.00
2023-01-19T14:56:09.065Z,99.05
2023-01-19T14:59:13.855Z,100.00
2023-01-19T15:02:21.449Z,100.00
2023-01-19T15:05:26.012Z,100.00
2023-01-19T15:08:37.534Z,100.00
2023-01-19T15:11:43.421Z,100.00
2023-01-19T15:14:48.044Z,100.00
2023-01-19T15:17:55.239Z,100.00
2023-01-19T15:21:02.849Z,100.00
2023-01-19T15:24:08.877Z,100.00
2023-01-19T15:27:13.502Z,100.00
2023-01-19T15:30:21.487Z,100.00
2023-01-19T15:33:32.848Z,100.00
2023-01-19T15:36:37.347Z,100.00
2023-01-19T15:39:41.953Z,100.00
2023-01-19T15:42:46.743Z,99.97
2023-01-19T15:45:59.810Z,100.00
2023-01-19T15:49:05.680Z,100.00
2023-01-19T15:52:10.276Z,100.00
2023-01-19T15:55:15.812Z,100.00
2023-01-19T15:58:20.682Z,100.00
2023-01-19T16:01:32.100Z,100.00
2023-01-19T16:04:36.773Z,100.00
2023-01-19T16:07:41.327Z,100.00
2023-01-19T16:10:45.826Z,100.00
2023-01-19T16:13:50.528Z,100.00
2023-01-19T16:16:55.320Z,100.00
2023-01-19T16:19:59.956Z,100.00
2023-01-19T16:23:20.118Z,100.00
2023-01-19T16:26:30.301Z,100.00
2023-01-19T16:29:34.827Z,100.00
2023-01-19T16:32:39.309Z,100.00
2023-01-19T16:35:43.795Z,100.00
2023-01-19T16:38:48.395Z,100.00
2023-01-19T16:41:52.855Z,100.00
2023-01-19T16:44:58.780Z,100.00
2023-01-19T16:48:03.265Z,100.00
2023-01-19T16:51:07.865Z,100.00
2023-01-19T16:54:16.931Z,100.00
2023-01-19T16:57:21.571Z,100.00
2023-01-19T17:00:26.163Z,100.00
2023-01-19T17:03:30.725Z,100.00
2023-01-19T17:06:35.351Z,100.00
2023-01-19T17:09:39.891Z,100.00
2023-01-19T17:12:45.862Z,100.00
2023-01-19T17:15:50.524Z,100.00
2023-01-19T17:18:57.185Z,100.00
2023-01-19T17:22:01.703Z,100.00
2023-01-19T17:25:06.660Z,100.00
2023-01-19T17:28:11.184Z,100.00
2023-01-19T17:31:21.133Z,100.00
2023-01-19T17:34:25.872Z,100.00
2023-01-19T17:37:31.869Z,100.00
2023-01-19T17:40:37.089Z,100.00
2023-01-19T17:43:41.668Z,100.00
2023-01-19T17:46:46.203Z,100.00
2023-01-19T17:49:50.721Z,100.00
2023-01-19T17:52:56.745Z,99.54
2023-01-19T17:56:08.051Z,100.00
2023-01-19T17:59:12.557Z,100.00
2023-01-19T18:02:17.361Z,100.00
2023-01-19T18:05:23.249Z,99.89
2023-01-19T18:08:27.847Z,98.80
2023-01-19T18:11:32.590Z,98.38
2023-01-19T18:14:37.753Z,99.41
2023-01-19T18:17:42.704Z,99.80
2023-01-19T18:20:47.179Z,99.47
2023-01-19T18:23:52.802Z,100.00
2023-01-19T18:26:57.434Z,100.00
2023-01-19T18:30:02.016Z,96.61
2023-01-19T18:33:06.592Z,100.00
2023-01-19T18:36:11.342Z,99.79
2023-01-19T18:39:18.919Z,100.00
2023-01-19T18:42:23.471Z,100.00
2023-01-19T18:45:27.983Z,100.00
2023-01-19T18:48:32.597Z,100.00
2023-01-19T18:51:37.528Z,100.00
2023-01-19T18:54:42.099Z,100.00
2023-01-19T18:57:46.910Z,100.00
2023-01-19T19:00:51.622Z,100.00
2023-01-19T19:03:57.168Z,100.00
2023-01-19T19:07:01.817Z,100.00
2023-01-19T19:10:06.836Z,100.00
2023-01-19T19:13:13.071Z,100.00
2023-01-19T19:16:17.578Z,100.00
2023-01-19T19:19:22.190Z,100.00
2023-01-19T19:22:26.728Z,100.00
2023-01-19T19:25:32.211Z,100.00
2023-01-19T19:28:38.419Z,100.00
2023-01-19T19:31:42.966Z,100.00
2023-01-19T19:34:52.576Z,100.00
2023-01-19T19:37:57.682Z,100.00
2023-01-19T19:41:06.982Z,100.00
2023-01-19T19:44:14.173Z,100.00
2023-01-19T19:47:19.190Z,100.00
2023-01-19T19:50:23.788Z,100.00
2023-01-19T19:53:28.449Z,100.00
2023-01-19T19:56:34.284Z,100.00
2023-01-19T19:59:38.900Z,100.00
2023-01-19T20:02:43.520Z,100.00
2023-01-19T20:05:48.124Z,100.00
2023-01-19T20:08:55.330Z,100.00
2023-01-19T20:11:59.942Z,100.00
2023-01-19T20:15:04.789Z,100.00
2023-01-19T20:18:09.392Z,100.00
2023-01-19T20:21:18.712Z,100.00
2023-01-19T20:24:23.277Z,100.00
2023-01-19T20:27:27.749Z,100.00
2023-01-19T20:30:32.398Z,100.00
2023-01-19T20:33:37.112Z,100.00
2023-01-19T20:36:42.277Z,100.00
2023-01-19T20:39:46.780Z,100.00
2023-01-19T20:42:51.350Z,100.00
2023-01-19T20:45:55.934Z,100.00
2023-01-19T20:49:00.446Z,100.00
2023-01-19T20:52:05.074Z,100.00
2023-01-19T20:55:10.404Z,100.00
2023-01-19T20:58:15.079Z,100.00
2023-01-19T21:01:23.358Z,100.00
2023-01-19T21:04:27.995Z,100.00
2023-01-19T21:07:32.601Z,100.00
2023-01-19T21:10:37.187Z,100.00
2023-01-19T21:13:41.712Z,100.00
2023-01-19T21:16:46.261Z,100.00
2023-01-19T21:19:50.797Z,100.00
2023-01-19T21:22:56.691Z,100.00
2023-01-19T21:26:01.760Z,100.00
2023-01-19T21:29:06.254Z,100.00
2023-01-19T21:32:10.858Z,100.00
2023-01-19T21:38:55.571Z,100.00
2023-01-19T21:42:00.238Z,100.00
2023-01-19T21:45:05.215Z,100.00
2023-01-19T21:48:12.899Z,100.00
2023-01-19T21:51:17.516Z,100.00
2023-01-19T21:54:22.035Z,100.00
2023-01-19T21:57:26.547Z,100.00
2023-01-19T22:00:31.568Z,100.00
2023-01-19T22:03:36.350Z,100.00
2023-01-19T22:06:40.943Z,100.00
2023-01-19T22:09:45.418Z,100.00
2023-01-19T22:12:49.948Z,100.00
2023-01-19T22:16:00.604Z,100.00
2023-01-19T22:19:07.577Z,100.00
2023-01-19T22:22:12.103Z,100.00
2023-01-19T22:25:16.624Z,100.00
2023-01-19T22:28:21.144Z,100.00
2023-01-19T22:31:27.057Z,100.00
2023-01-19T22:34:32.616Z,100.00
2023-01-19T22:37:37.645Z,100.00
2023-01-19T22:40:42.145Z,100.00
2023-01-19T22:43:47.916Z,100.00
2023-01-19T22:46:55.117Z,100.00
2023-01-19T22:49:59.647Z,100.00
2023-01-19T22:53:04.195Z,100.00
2023-01-19T22:56:39.310Z,100.00
2023-01-19T22:59:43.927Z,100.00
2023-01-19T23:02:48.392Z,100.00
2023-01-19T23:05:53.011Z,100.00
2023-01-19T23:08:59.801Z,100.00
2023-01-19T23:12:04.638Z,100.00
2023-01-19T23:15:10.419Z,100.00
2023-01-19T23:18:16.552Z,100.00
2023-01-19T23:21:22.854Z,100.00
2023-01-19T23:24:27.468Z,100.00
2023-01-19T23:27:31.980Z,100.00
2023-01-19T23:30:36.556Z,100.00
2023-01-19T23:33:41.522Z,100.00
2023-01-19T23:36:46.142Z,100.00
2023-01-19T23:39:50.740Z,100.00
2023-01-19T23:42:55.275Z,100.00
2023-01-19T23:46:04.827Z,100.00
2023-01-19T23:49:09.353Z,100.00
2023-01-19T23:52:15.842Z,100.00
2023-01-19T23:55:20.403Z,100.00
2023-01-19T23:58:24.881Z,100.00
